Time;durP1;ratioP1;P1;durP2;ratioP2;P2;SDS_P1;SDS_P2;PMS_P1;PMS_P2;Temp;Humidity;BMP_temperature;BMP_pressure;BME280_temperature;BME280_humidity;BME280_pressure;Samples;Min_cycle;Max_cycle;Signal;HPM_P1;HPM_P2
2021/11/25 02:56:22;;;;;;;5.32;1.70;;;1.70;99.90;;;;;;3914741;23;20026;31
2021/11/25 02:58:49;;;;;;;12.88;1.48;;;1.60;99.90;;;;;;4920516;29;20068;-96
2021/11/25 03:02:02;;;;;;;6.90;1.45;;;1.60;99.90;;;;;;4922111;29;20035;-96
2021/11/25 03:05:25;;;;;;;6.60;1.55;;;1.60;99.90;;;;;;4926304;29;20052;-95
2021/11/25 03:08:13;;;;;;;5.00;1.27;;;1.60;99.90;;;;;;4941800;29;20051;-95
2021/11/25 03:10:47;;;;;;;4.57;1.60;;;1.60;99.90;;;;;;4934411;29;20016;-96
2021/11/25 03:13:20;;;;;;;7.90;1.30;;;1.60;99.90;;;;;;4919073;29;20138;-95
2021/11/25 03:15:47;;;;;;;5.53;1.27;;;1.60;99.90;;;;;;4922378;29;20032;-94
2021/11/25 03:18:15;;;;;;;7.32;1.33;;;1.70;99.90;;;;;;4914043;29;20028;-95
2021/11/25 03:20:49;;;;;;;5.72;1.30;;;1.70;99.90;;;;;;4929299;29;20053;-95
2021/11/25 03:23:18;;;;;;;7.88;1.02;;;1.70;99.90;;;;;;4930449;29;20032;-96
2021/11/25 03:25:45;;;;;;;5.28;1.25;;;1.70;99.90;;;;;;4928793;29;20063;-94
2021/11/25 03:28:11;;;;;;;4.03;1.17;;;1.80;99.90;;;;;;4926627;29;20025;-94
2021/11/25 03:30:38;;;;;;;6.40;1.50;;;1.70;99.90;;;;;;4912422;29;20032;-95
2021/11/25 03:33:06;;;;;;;10.02;1.35;;;1.80;99.90;;;;;;4927465;29;20032;-94
2021/11/25 03:35:32;;;;;;;6.93;1.10;;;1.70;99.90;;;;;;4942031;29;20092;-95
2021/11/25 03:37:58;;;;;;;8.40;1.10;;;1.70;99.90;;;;;;4932772;29;20031;-95
2021/11/25 03:40:26;;;;;;;4.78;1.30;;;1.70;99.90;;;;;;4932397;29;20038;-95
2021/11/25 03:42:52;;;;;;;5.05;1.63;;;1.70;99.90;;;;;;4920264;29;20040;-95
2021/11/25 03:45:18;;;;;;;7.43;1.02;;;1.70;99.90;;;;;;4937310;29;20158;-95
2021/11/25 03:47:45;;;;;;;4.35;1.05;;;1.70;99.90;;;;;;4954926;29;20027;-94
2021/11/25 03:50:12;;;;;;;5.90;1.17;;;1.70;99.90;;;;;;4934811;29;20101;-95
2021/11/25 03:52:38;;;;;;;5.40;0.93;;;1.60;99.90;;;;;;4932772;29;20051;-95
2021/11/25 03:55:09;;;;;;;6.18;1.38;;;1.60;99.90;;;;;;4945700;29;20028;-95
2021/11/25 03:57:36;;;;;;;7.07;0.90;;;1.60;99.90;;;;;;4924937;29;20060;-94
2021/11/25 04:00:08;;;;;;;4.18;0.90;;;1.60;99.90;;;;;;4927660;29;20032;-95
2021/11/25 04:02:35;;;;;;;8.65;1.02;;;1.60;99.90;;;;;;4929567;29;20055;-95
2021/11/25 04:05:01;;;;;;;8.27;0.93;;;1.60;99.90;;;;;;4929770;29;20131;-94
2021/11/25 04:07:27;;;;;;;3.47;0.95;;;1.50;99.90;;;;;;4930549;29;20500;-95
2021/11/25 04:09:54;;;;;;;5.68;0.95;;;1.60;99.90;;;;;;4932387;29;20114;-95
2021/11/25 04:12:20;;;;;;;8.23;1.20;;;1.50;99.90;;;;;;4929676;29;20024;-95
2021/11/25 04:14:46;;;;;;;6.70;2.22;;;1.50;99.90;;;;;;4942439;29;20024;-94
2021/11/25 04:17:13;;;;;;;5.18;0.90;;;1.50;99.90;;;;;;4929649;29;20071;-95
2021/11/25 04:19:41;;;;;;;7.28;0.93;;;1.50;99.90;;;;;;4934925;29;20032;-94
2021/11/25 04:22:08;;;;;;;5.00;0.90;;;1.50;99.90;;;;;;4919052;29;20067;-95
2021/11/25 04:24:34;;;;;;;6.05;0.80;;;1.50;99.90;;;;;;4915756;29;20060;-95
2021/11/25 04:27:00;;;;;;;0.88;0.68;;;1.50;99.90;;;;;;4913904;29;20028;-95
2021/11/25 04:29:35;;;;;;;6.32;0.90;;;1.50;99.90;;;;;;4935622;29;20028;-96
2021/11/25 04:37:50;;;;;;;7.85;2.50;;;1.50;99.90;;;;;;4957863;29;20043;-96
2021/11/25 04:40:24;;;;;;;2.88;0.70;;;1.50;99.90;;;;;;4941519;29;20078;-95
2021/11/25 04:43:12;;;;;;;1.60;0.70;;;1.50;99.90;;;;;;4924789;29;20028;-95
2021/11/25 04:45:44;;;;;;;6.97;0.88;;;1.50;99.90;;;;;;4957586;29;20096;-95
2021/11/25 04:48:11;;;;;;;;;;;1.50;99.90;;;;;;4944819;28;20012;-94
2021/11/25 04:50:45;;;;;;;3.10;0.90;;;1.40;99.90;;;;;;4926783;29;19915;-95
2021/11/25 04:53:13;;;;;;;3.63;0.85;;;1.40;99.90;;;;;;4940255;29;20023;-94
2021/11/25 04:55:43;;;;;;;4.95;1.50;;;1.40;99.90;;;;;;4939498;29;20038;-96
2021/11/25 04:58:11;;;;;;;6.40;0.70;;;1.40;99.90;;;;;;4937668;29;20047;-94
2021/11/25 05:00:37;;;;;;;7.88;0.70;;;1.50;99.90;;;;;;4938653;29;20031;-95
2021/11/25 05:03:04;;;;;;;5.78;1.17;;;1.50;99.90;;;;;;4958346;29;20024;-95
2021/11/25 05:05:30;;;;;;;6.03;1.00;;;1.60;99.90;;;;;;4941390;29;20044;-96
2021/11/25 05:07:56;;;;;;;5.60;1.42;;;1.60;99.90;;;;;;4929542;29;20027;-95
2021/11/25 05:10:21;;;;;;;6.80;1.20;;;1.60;99.90;;;;;;4925920;29;20027;-93
2021/11/25 05:12:47;;;;;;;13.23;0.98;;;1.60;99.90;;;;;;4924882;29;20036;-95
2021/11/25 05:15:15;;;;;;;9.93;0.90;;;1.70;99.90;;;;;;4924657;29;20027;-95
2021/11/25 05:17:42;;;;;;;8.25;1.25;;;1.60;99.90;;;;;;4926146;29;20032;-94
2021/11/25 05:20:12;;;;;;;3.42;1.00;;;1.60;99.90;;;;;;4925456;29;20028;-95
2021/11/25 05:22:38;;;;;;;8.35;0.90;;;1.60;99.90;;;;;;4926071;29;20549;-94
2021/11/25 05:25:11;;;;;;;4.43;0.65;;;1.60;99.90;;;;;;4927492;29;20039;-95
2021/11/25 05:27:37;;;;;;;6.32;0.65;;;1.60;99.90;;;;;;4927925;29;20034;-95
2021/11/25 05:30:05;;;;;;;3.22;0.65;;;1.70;99.90;;;;;;4926649;29;20023;-95
2021/11/25 05:32:31;;;;;;;4.32;0.98;;;1.70;99.90;;;;;;4926172;29;20122;-94
2021/11/25 05:35:00;;;;;;;4.53;0.93;;;1.70;99.90;;;;;;4924964;29;20066;-95
2021/11/25 05:37:26;;;;;;;5.40;1.05;;;1.70;99.90;;;;;;4940841;29;20112;-96
2021/11/25 05:39:51;;;;;;;4.57;1.02;;;1.70;99.90;;;;;;4925111;29;20047;-95
2021/11/25 05:42:18;;;;;;;6.75;0.90;;;1.70;99.90;;;;;;4929188;29;20032;-95
2021/11/25 05:44:46;;;;;;;3.83;0.68;;;1.70;99.90;;;;;;4930466;29;20044;-95
2021/11/25 05:47:19;;;;;;;6.82;0.95;;;1.60;99.90;;;;;;4946034;29;20024;-95
2021/11/25 05:49:45;;;;;;;7.25;0.95;;;1.60;99.90;;;;;;4930519;29;20031;-96
2021/11/25 05:52:11;;;;;;;6.38;1.00;;;1.60;99.90;;;;;;4931108;29;20036;-94
2021/11/25 05:54:37;;;;;;;5.43;0.77;;;1.60;99.90;;;;;;4927862;29;20034;-94
2021/11/25 05:57:03;;;;;;;1.38;0.73;;;1.60;99.90;;;;;;4926159;29;20062;-94
2021/11/25 05:59:28;;;;;;;4.78;0.70;;;1.60;99.90;;;;;;4923999;29;20039;-94
2021/11/25 06:01:54;;;;;;;10.73;2.45;;;1.60;99.90;;;;;;4924802;29;20028;-93
2021/11/25 06:04:20;;;;;;;2.03;1.08;;;1.60;99.90;;;;;;4924645;29;20031;-94
2021/11/25 06:06:46;;;;;;;6.90;1.75;;;1.60;99.90;;;;;;4924339;29;20039;-94
2021/11/25 06:09:11;;;;;;;4.60;0.90;;;1.60;99.90;;;;;;4923700;29;20528;-96
2021/11/25 06:11:37;;;;;;;10.70;1.33;;;1.60;99.90;;;;;;4923585;29;20038;-94
2021/11/25 06:14:04;;;;;;;8.35;1.00;;;1.60;99.90;;;;;;4924605;29;20030;-96
2021/11/25 06:16:30;;;;;;;3.65;0.77;;;1.60;99.90;;;;;;4926116;29;20039;-95
2021/11/25 06:18:56;;;;;;;4.00;0.50;;;1.60;99.90;;;;;;4926230;29;20028;-93
2021/11/25 06:21:22;;;;;;;8.57;0.95;;;1.60;99.90;;;;;;4925797;29;20110;-94
2021/11/25 06:23:47;;;;;;;5.07;1.70;;;1.50;99.90;;;;;;4924766;29;20027;-95
2021/11/25 06:26:13;;;;;;;4.93;1.27;;;1.50;99.90;;;;;;4927517;29;20043;-95
2021/11/25 06:28:39;;;;;;;8.63;2.28;;;1.50;99.90;;;;;;4940205;29;20035;-96
2021/11/25 06:31:05;;;;;;;7.47;0.90;;;1.50;99.90;;;;;;4937737;29;20490;-95
2021/11/25 06:33:30;;;;;;;2.88;0.60;;;1.40;99.90;;;;;;4932545;29;20031;-91
2021/11/25 06:35:56;;;;;;;4.57;0.70;;;1.40;99.90;;;;;;4921637;29;20030;-94
2021/11/25 06:38:22;;;;;;;5.72;1.00;;;1.40;99.90;;;;;;4930029;29;20067;-93
2021/11/25 06:40:49;;;;;;;4.68;0.80;;;1.40;99.90;;;;;;4927859;29;20079;-92
2021/11/25 06:43:15;;;;;;;4.53;0.80;;;1.40;99.90;;;;;;4921614;29;20123;-92
2021/11/25 06:45:42;;;;;;;2.95;0.70;;;1.40;99.90;;;;;;4906210;29;20047;-93
2021/11/25 06:48:09;;;;;;;4.35;0.80;;;1.40;99.90;;;;;;4920446;29;20028;-93
2021/11/25 06:50:35;;;;;;;4.28;1.05;;;1.40;99.90;;;;;;4919772;29;20032;-94
2021/11/25 06:53:01;;;;;;;5.18;1.02;;;1.40;99.90;;;;;;4922658;29;20040;-94
2021/11/25 06:55:27;;;;;;;3.53;1.02;;;1.40;99.90;;;;;;4926483;29;20068;-94
2021/11/25 06:57:53;;;;;;;2.92;0.70;;;1.30;99.90;;;;;;4939989;29;20067;-94
2021/11/25 07:00:25;;;;;;;6.88;1.08;;;1.30;99.90;;;;;;4925299;29;20034;-94
2021/11/25 07:02:53;;;;;;;6.70;1.20;;;1.40;99.90;;;;;;4924986;29;20031;-95
2021/11/25 07:05:20;;;;;;;7.72;1.10;;;1.30;99.90;;;;;;4924799;29;20086;-93
2021/11/25 07:07:45;;;;;;;7.10;0.90;;;1.30;99.90;;;;;;4921243;29;20023;-93
2021/11/25 07:10:16;;;;;;;3.65;0.85;;;1.40;99.90;;;;;;4936136;29;20541;-93
2021/11/25 07:12:42;;;;;;;5.15;1.20;;;1.30;99.90;;;;;;4919489;29;20038;-94
2021/11/25 07:15:09;;;;;;;6.20;1.08;;;1.30;99.90;;;;;;4921715;29;20425;-93
2021/11/25 07:17:35;;;;;;;1.98;0.73;;;1.40;99.90;;;;;;4922513;29;20032;-95
2021/11/25 07:20:02;;;;;;;8.02;1.08;;;1.40;99.90;;;;;;4922313;29;20145;-94
2021/11/25 07:22:29;;;;;;;6.35;1.73;;;1.40;99.90;;;;;;4919629;29;20024;-94
2021/11/25 07:24:55;;;;;;;5.13;0.90;;;1.40;99.90;;;;;;4919555;29;20498;-93
2021/11/25 07:27:21;;;;;;;8.77;0.98;;;1.50;99.90;;;;;;4919506;29;20028;-94
2021/11/25 07:29:47;;;;;;;5.00;0.60;;;1.50;99.90;;;;;;4921878;29;20031;-92
2021/11/25 07:32:13;;;;;;;4.75;0.95;;;1.50;99.90;;;;;;4916318;29;20035;-94
2021/11/25 07:34:38;;;;;;;7.15;1.25;;;1.50;99.90;;;;;;4923397;29;20023;-93
2021/11/25 07:37:04;;;;;;;4.85;0.75;;;1.50;99.90;;;;;;4919423;29;20109;-93
2021/11/25 07:39:33;;;;;;;7.95;1.60;;;1.40;99.90;;;;;;4924925;29;20389;-92
2021/11/25 07:42:01;;;;;;;5.35;0.90;;;1.40;99.90;;;;;;4916804;29;20381;-93
2021/11/25 07:44:27;;;;;;;3.20;0.80;;;1.40;99.90;;;;;;4924529;29;20103;-92
2021/11/25 07:46:53;;;;;;;12.75;2.33;;;1.50;99.90;;;;;;4920773;29;20062;-93
2021/11/25 07:49:20;;;;;;;3.30;1.52;;;1.50;99.90;;;;;;4925646;29;20024;-93
2021/11/25 07:51:46;;;;;;;4.80;0.90;;;1.60;99.90;;;;;;4917423;29;20075;-94
2021/11/25 07:54:12;;;;;;;6.50;1.08;;;1.60;99.90;;;;;;4914985;29;20393;-94
2021/11/25 07:56:38;;;;;;;10.25;1.00;;;1.70;99.90;;;;;;4924464;29;20106;-95
2021/11/25 07:59:05;;;;;;;3.53;0.82;;;1.80;99.90;;;;;;4923247;29;20481;-95
2021/11/25 08:01:32;;;;;;;1.90;0.63;;;1.80;99.90;;;;;;4911170;29;20024;-95
2021/11/25 08:03:58;;;;;;;7.05;1.30;;;1.90;99.90;;;;;;4913456;29;20028;-92
2021/11/25 08:06:24;;;;;;;7.05;0.82;;;1.90;99.90;;;;;;4921462;29;20107;-94
2021/11/25 08:08:50;;;;;;;7.53;1.23;;;2.00;99.90;;;;;;4922480;29;20111;-94
2021/11/25 08:11:16;;;;;;;13.50;1.20;;;2.00;99.90;;;;;;4922248;29;20512;-94
2021/11/25 08:13:42;;;;;;;6.78;0.93;;;2.00;99.90;;;;;;4922742;29;20544;-93
2021/11/25 08:16:13;;;;;;;5.97;0.98;;;2.00;99.90;;;;;;4922536;29;20020;-92
2021/11/25 08:18:39;;;;;;;4.35;1.20;;;2.10;99.90;;;;;;4908383;29;20495;-94
2021/11/25 08:21:04;;;;;;;9.70;1.10;;;2.10;99.90;;;;;;4929259;29;20032;-93
2021/11/25 08:23:30;;;;;;;5.95;1.42;;;2.00;99.90;;;;;;4921404;29;20034;-92
2021/11/25 08:25:56;;;;;;;6.93;0.95;;;2.10;99.90;;;;;;4938272;29;20035;-92
2021/11/25 08:28:24;;;;;;;5.63;1.17;;;2.10;99.90;;;;;;4913478;29;20115;-93
2021/11/25 08:30:51;;;;;;;9.57;1.30;;;2.10;99.90;;;;;;4912485;29;20039;-93
2021/11/25 08:33:17;;;;;;;4.32;1.10;;;2.10;99.90;;;;;;4912123;29;20043;-93
2021/11/25 08:35:42;;;;;;;5.13;1.30;;;2.10;99.90;;;;;;4937883;29;20039;-91
2021/11/25 08:38:08;;;;;;;7.28;1.10;;;2.10;99.90;;;;;;4938697;29;20036;-91
2021/11/25 08:40:34;;;;;;;8.38;1.08;;;2.10;99.90;;;;;;4921102;29;20035;-93
2021/11/25 08:43:00;;;;;;;5.20;1.10;;;2.20;99.90;;;;;;4936796;29;20114;-92
2021/11/25 08:45:26;;;;;;;9.45;1.17;;;2.20;99.90;;;;;;4925228;29;20102;-91
2021/11/25 08:47:52;;;;;;;5.28;0.75;;;2.20;99.90;;;;;;4921068;29;20083;-91
2021/11/25 08:50:19;;;;;;;13.93;2.17;;;2.20;99.90;;;;;;4927951;29;20036;-93
2021/11/25 08:52:44;;;;;;;6.65;1.13;;;2.20;99.90;;;;;;4921622;29;20051;-94
2021/11/25 08:55:10;;;;;;;6.63;1.80;;;2.20;99.90;;;;;;4916968;29;20034;-93
2021/11/25 08:57:38;;;;;;;4.47;1.25;;;2.20;99.90;;;;;;4941529;29;20144;-93
2021/11/25 09:00:06;;;;;;;7.97;1.23;;;2.30;99.90;;;;;;4951243;29;20477;-93
2021/11/25 09:02:32;;;;;;;5.13;1.25;;;2.30;99.90;;;;;;4938835;29;20036;-94
2021/11/25 09:04:58;;;;;;;4.93;0.93;;;2.40;99.90;;;;;;4913629;29;20048;-94
2021/11/25 09:07:23;;;;;;;7.68;1.40;;;2.40;99.90;;;;;;4921405;29;20032;-94
2021/11/25 09:09:49;;;;;;;8.93;1.85;;;2.50;99.90;;;;;;4928727;29;20024;-93
2021/11/25 09:12:15;;;;;;;7.70;1.25;;;2.60;99.90;;;;;;4907125;29;20085;-93
2021/11/25 09:14:41;;;;;;;12.68;2.35;;;2.80;99.90;;;;;;4901239;29;20598;-93
2021/11/25 09:17:06;;;;;;;7.03;1.10;;;3.00;99.90;;;;;;4916383;29;20194;-93
2021/11/25 09:19:32;;;;;;;3.78;0.80;;;3.10;99.90;;;;;;4921787;29;20035;-93
2021/11/25 09:21:58;;;;;;;6.03;1.20;;;3.30;99.90;;;;;;4921643;29;20446;-93
2021/11/25 09:24:23;;;;;;;5.45;1.15;;;3.50;99.90;;;;;;4922043;29;20086;-94
2021/11/25 09:26:49;;;;;;;12.35;1.17;;;3.70;99.90;;;;;;4921147;29;20379;-93
2021/11/25 09:29:16;;;;;;;8.60;1.00;;;3.90;99.90;;;;;;4939883;29;20028;-93
2021/11/25 09:35:09;;;;;;;6.95;1.23;;;4.40;99.90;;;;;;5003475;23;20054;-93
2021/11/25 09:37:35;;;;;;;6.03;1.08;;;4.80;99.90;;;;;;4941581;29;20035;-93
2021/11/25 09:40:01;;;;;;;9.05;1.30;;;5.00;99.90;;;;;;4960617;28;20463;-93
2021/11/25 09:42:27;;;;;;;9.20;1.48;;;5.20;99.90;;;;;;4949617;28;20026;-93
2021/11/25 09:44:53;;;;;;;7.45;0.95;;;5.40;99.90;;;;;;4945135;28;20101;-94
2021/11/25 09:47:19;;;;;;;5.03;0.88;;;5.60;99.90;;;;;;4958046;28;20030;-93
2021/11/25 09:49:45;;;;;;;3.03;1.15;;;5.70;99.90;;;;;;4960488;28;20472;-93
2021/11/25 09:52:11;;;;;;;5.28;0.80;;;5.90;99.90;;;;;;4954238;28;20022;-93
2021/11/25 09:54:37;;;;;;;7.63;1.20;;;6.10;99.90;;;;;;4951845;28;20047;-95
2021/11/25 09:57:03;;;;;;;9.20;1.83;;;6.30;99.90;;;;;;4955443;28;20042;-94
2021/11/25 09:59:29;;;;;;;6.28;1.10;;;6.50;99.90;;;;;;4959364;28;20042;-94
2021/11/25 10:01:55;;;;;;;4.60;1.50;;;6.70;99.90;;;;;;4943468;29;20034;-93
2021/11/25 10:04:21;;;;;;;6.45;0.80;;;6.80;99.90;;;;;;4947151;28;20037;-93
2021/11/25 10:06:56;;;;;;;5.10;1.10;;;7.00;99.90;;;;;;4959424;28;20039;-94
2021/11/25 10:09:35;;;;;;;10.90;1.30;;;7.20;99.90;;;;;;4959423;28;20034;-94
2021/11/25 10:12:33;;;;;;;7.90;1.70;;;7.30;99.90;;;;;;4961453;28;20046;-93
2021/11/25 10:15:01;;;;;;;7.47;1.80;;;7.40;99.50;;;;;;4954860;28;20027;-94
2021/11/25 10:17:50;;;;;;;3.38;0.73;;;7.60;99.20;;;;;;4961024;28;20045;-94
2021/11/25 10:20:19;;;;;;;9.07;0.90;;;7.80;97.90;;;;;;4950956;29;20066;-94
2021/11/25 10:23:14;;;;;;;5.75;1.23;;;7.80;96.90;;;;;;4944073;29;20035;-95
2021/11/25 10:25:48;;;;;;;10.90;2.03;;;7.90;95.80;;;;;;4956347;29;20062;-93
2021/11/25 10:28:52;;;;;;;5.43;1.00;;;7.90;94.90;;;;;;4945571;28;20457;-93
2021/11/25 10:31:36;;;;;;;8.95;1.30;;;8.00;95.00;;;;;;4938553;29;20038;-94
2021/11/25 10:34:19;;;;;;;5.88;1.50;;;8.20;94.60;;;;;;4947190;29;20043;-94
2021/11/25 10:42:02;;;;;;;5.53;1.27;;;8.70;92.90;;;;;;4983715;28;20027;-96
2021/11/25 10:44:33;;;;;;;8.60;1.33;;;8.80;92.60;;;;;;4964129;28;20026;-95
2021/11/25 10:47:15;;;;;;;6.32;1.00;;;9.00;92.20;;;;;;4966071;28;20015;-96
2021/11/25 10:49:55;;;;;;;4.78;1.02;;;9.30;92.00;;;;;;4981287;28;20023;-94
2021/11/25 11:41:35;;;;;;;3.35;1.00;;;10.80;76.30;;;;;;4645512;23;20519;-94
2021/11/25 11:44:02;;;;;;;4.85;1.27;;;10.90;75.70;;;;;;4959821;28;20046;-94
2021/11/25 11:46:30;;;;;;;4.35;1.20;;;11.00;75.40;;;;;;4944884;29;20046;-94
2021/11/25 11:48:58;;;;;;;9.05;1.67;;;11.00;74.60;;;;;;4945799;29;20024;-94
2021/11/25 11:51:25;;;;;;;6.03;1.42;;;11.00;74.10;;;;;;4950584;29;20034;-95
2021/11/25 11:53:54;;;;;;;5.07;1.30;;;10.90;73.80;;;;;;4951275;29;20083;-95
2021/11/25 11:59:42;;;;;;;8.43;1.10;;;10.60;73.80;;;;;;5007067;23;20046;-95
2021/11/25 12:02:08;;;;;;;7.57;1.40;;;10.50;73.90;;;;;;4986628;28;20042;-94
2021/11/25 12:04:41;;;;;;;6.18;1.45;;;10.40;74.10;;;;;;4987481;28;20041;-96
2021/11/25 12:07:39;;;;;;;3.75;0.80;;;10.30;74.30;;;;;;4986101;28;20026;-95
2021/11/25 12:10:05;;;;;;;7.15;1.08;;;10.00;74.50;;;;;;4955464;28;20049;-94
2021/11/25 12:12:31;;;;;;;4.80;0.85;;;9.80;75.00;;;;;;4986735;28;20026;-94
2021/11/25 12:14:59;;;;;;;7.65;1.58;;;9.50;75.60;;;;;;4984946;28;20026;-94
2021/11/25 12:17:27;;;;;;;5.93;1.10;;;9.40;76.20;;;;;;4987010;28;20053;-94
2021/11/25 12:19:53;;;;;;;8.68;1.10;;;9.40;76.50;;;;;;4994322;28;20039;-94
2021/11/25 12:22:21;;;;;;;4.90;1.17;;;9.40;76.40;;;;;;4979440;28;20042;-94
2021/11/25 12:24:57;;;;;;;6.80;1.52;;;9.40;76.60;;;;;;4980585;28;20053;-94
2021/11/25 12:27:36;;;;;;;6.05;1.38;;;9.30;76.30;;;;;;4977274;28;20050;-94
2021/11/25 12:30:07;;;;;;;5.35;1.08;;;9.20;76.30;;;;;;4966529;28;20035;-94
2021/11/25 12:32:45;;;;;;;4.32;1.08;;;8.90;76.60;;;;;;4968981;28;20015;-95
2021/11/25 12:35:11;;;;;;;6.63;1.00;;;8.70;77.00;;;;;;4965977;28;20027;-93
2021/11/25 12:37:52;;;;;;;9.63;1.30;;;8.50;78.00;;;;;;4961729;29;20389;-94
2021/11/25 12:40:21;;;;;;;7.97;1.20;;;8.30;77.90;;;;;;4952676;29;20027;-95
2021/11/25 12:43:03;;;;;;;13.35;1.75;;;8.20;78.40;;;;;;4954207;28;20019;-93
2021/11/25 12:45:31;;;;;;;8.68;1.40;;;8.10;78.70;;;;;;4963846;28;20034;-94
2021/11/25 12:48:09;;;;;;;5.90;1.40;;;8.20;79.00;;;;;;4960838;28;20037;-96
2021/11/25 12:50:50;;;;;;;9.30;1.30;;;8.50;79.20;;;;;;4971724;29;20054;-96
2021/11/25 12:53:20;;;;;;;11.50;3.10;;;8.80;78.70;;;;;;4955116;29;20125;-96
2021/11/25 12:55:57;;;;;;;5.88;1.58;;;8.90;78.10;;;;;;4953174;29;20055;-95
2021/11/25 12:58:57;;;;;;;9.52;1.70;;;9.00;77.40;;;;;;4955269;29;20055;-95
2021/11/25 13:01:38;;;;;;;13.57;2.13;;;9.00;77.00;;;;;;4952622;28;20030;-96
2021/11/25 13:17:04;;;;;;;7.78;1.83;;;9.00;76.50;;;;;;5068012;23;20071;-96
2021/11/25 13:19:37;;;;;;;6.13;1.52;;;9.20;75.90;;;;;;4932660;29;20414;-95
2021/11/25 13:22:11;;;;;;;5.55;1.20;;;9.20;75.50;;;;;;4935748;29;20042;-96
2021/11/25 13:24:42;;;;;;;7.65;1.77;;;9.30;75.40;;;;;;4931276;29;20036;-95
2021/11/25 13:27:10;;;;;;;4.40;1.30;;;9.40;75.00;;;;;;4949758;29;20058;-96
2021/11/25 13:29:49;;;;;;;8.65;1.73;;;9.60;75.00;;;;;;4933010;29;20035;-95
2021/11/25 13:32:21;;;;;;;3.58;0.95;;;9.60;74.70;;;;;;4932011;29;20023;-95
2021/11/25 13:34:54;;;;;;;9.50;1.48;;;9.70;74.50;;;;;;4911697;29;20115;-96
2021/11/25 13:37:26;;;;;;;8.38;1.05;;;9.60;74.30;;;;;;4909697;29;20032;-96
2021/11/25 13:39:58;;;;;;;6.25;1.25;;;9.50;74.90;;;;;;4908048;29;20129;-95
2021/11/25 13:42:26;;;;;;;9.85;1.48;;;9.30;74.30;;;;;;4913002;29;20028;-95
2021/11/25 13:44:53;;;;;;;8.02;1.15;;;9.20;74.60;;;;;;4913629;29;20059;-96
2021/11/25 13:47:28;;;;;;;7.30;1.30;;;9.10;75.00;;;;;;4909074;29;20032;-95
2021/11/25 13:50:03;;;;;;;6.97;1.40;;;9.00;74.80;;;;;;4908692;29;20031;-95
2021/11/25 13:52:42;;;;;;;7.10;1.58;;;8.80;74.70;;;;;;4927923;29;20053;-94
2021/11/25 13:55:14;;;;;;;8.00;1.77;;;8.50;75.10;;;;;;4910935;29;20051;-95
2021/11/25 13:57:40;;;;;;;6.60;1.25;;;8.30;75.60;;;;;;4912167;29;20024;-95
2021/11/25 14:00:13;;;;;;;10.65;1.60;;;8.10;76.20;;;;;;4910648;29;20036;-95
2021/11/25 14:02:39;;;;;;;9.13;1.85;;;7.90;76.80;;;;;;4928909;29;20031;-95
2021/11/25 14:05:08;;;;;;;7.72;1.23;;;7.60;77.30;;;;;;4926311;29;20043;-94
2021/11/25 14:07:35;;;;;;;8.30;1.30;;;7.50;78.10;;;;;;4913056;29;20024;-95
2021/11/25 14:10:04;;;;;;;7.72;1.55;;;7.30;78.70;;;;;;4913651;29;20035;-95
2021/11/25 14:12:30;;;;;;;7.82;1.30;;;7.20;79.20;;;;;;4913224;29;20024;-94
2021/11/25 14:14:58;;;;;;;5.20;1.15;;;7.10;79.60;;;;;;4906908;29;20047;-94
2021/11/25 14:17:27;;;;;;;4.85;1.20;;;6.90;80.00;;;;;;4918094;29;20047;-94
2021/11/25 14:19:59;;;;;;;4.68;1.27;;;6.80;80.50;;;;;;4912371;29;20024;-93
2021/11/25 14:22:31;;;;;;;8.50;1.67;;;6.70;80.80;;;;;;4917436;29;20028;-95
2021/11/25 14:31:23;;;;;;;13.90;1.48;;;6.50;81.90;;;;;;4955174;29;20119;-96
2021/11/25 14:33:56;;;;;;;13.48;2.45;;;6.50;82.20;;;;;;4937135;29;20026;-95
2021/11/25 14:36:27;;;;;;;8.10;1.50;;;6.50;82.60;;;;;;4937441;29;20042;-95
2021/11/25 14:38:57;;;;;;;9.65;1.85;;;6.50;82.90;;;;;;4937764;29;20051;-96
2021/11/25 14:41:30;;;;;;;4.63;1.40;;;6.40;83.10;;;;;;4939357;29;20035;-95
2021/11/25 14:44:07;;;;;;;11.20;2.28;;;6.40;83.40;;;;;;4938389;29;20028;-96
2021/11/25 14:46:36;;;;;;;7.15;1.70;;;6.50;83.80;;;;;;4919613;29;20044;-95
2021/11/25 14:49:08;;;;;;;6.10;1.33;;;6.40;83.70;;;;;;4940345;29;20038;-95
2021/11/25 14:51:40;;;;;;;10.82;1.38;;;6.40;84.00;;;;;;4910371;29;20028;-96
2021/11/25 15:50:11;;;;;;;8.50;2.10;;;4.90;91.40;;;;;;5843248;23;20287;-94
2021/11/25 15:52:40;;;;;;;11.80;2.40;;;4.90;91.70;;;;;;4956629;29;20062;-95
2021/11/25 15:55:08;;;;;;;10.07;2.42;;;4.80;91.80;;;;;;4960440;29;20015;-94
2021/11/25 15:57:37;;;;;;;11.50;2.65;;;4.70;91.90;;;;;;4973709;28;20087;-95
2021/11/25 16:00:08;;;;;;;12.68;2.63;;;4.70;92.10;;;;;;4941941;29;20087;-95
2021/11/25 16:02:52;;;;;;;14.75;3.35;;;4.70;92.40;;;;;;4940704;29;20047;-95
2021/11/25 16:05:21;;;;;;;10.98;3.05;;;4.70;92.50;;;;;;4943786;29;20059;-95
2021/11/25 16:08:10;;;;;;;12.13;3.58;;;4.60;92.60;;;;;;4957269;29;20038;-95
2021/11/25 16:10:37;;;;;;;17.70;4.90;;;4.60;92.80;;;;;;4938252;29;20059;-96
2021/11/25 16:13:09;;;;;;;12.82;4.15;;;4.60;93.00;;;;;;4938483;29;20066;-95
2021/11/25 16:15:39;;;;;;;13.68;3.95;;;4.50;93.10;;;;;;4955938;29;20118;-96
2021/11/25 16:18:09;;;;;;;;;;;4.50;93.30;;;;;;4941987;29;20054;-96
2021/11/25 16:20:37;;;;;;;8.68;2.67;;;4.40;93.40;;;;;;4940163;29;19941;-95
2021/11/25 16:23:06;;;;;;;7.20;2.33;;;4.40;93.50;;;;;;4940034;29;20027;-96
2021/11/25 16:25:36;;;;;;;14.23;2.67;;;4.40;93.60;;;;;;4937764;29;20047;-95
2021/11/25 16:28:14;;;;;;;10.95;2.10;;;4.30;93.80;;;;;;4938736;29;20031;-95
2021/11/25 16:30:50;;;;;;;12.50;2.25;;;4.30;94.00;;;;;;4938268;29;20051;-96
2021/11/25 16:33:37;;;;;;;12.93;2.80;;;4.20;94.10;;;;;;4921719;29;20040;-96
2021/11/25 16:36:06;;;;;;;8.25;1.80;;;4.20;94.20;;;;;;4921518;29;20060;-96
2021/11/25 16:38:42;;;;;;;8.35;1.92;;;4.20;94.40;;;;;;4946220;29;20008;-95
2021/11/25 16:41:22;;;;;;;7.38;1.88;;;4.20;94.60;;;;;;4960039;28;20027;-96
2021/11/25 16:43:50;;;;;;;4.10;1.33;;;4.10;94.70;;;;;;4927419;29;20028;-95
2021/11/25 17:32:45;;;;;;;7.22;1.60;;;3.80;97.40;;;;;;5329623;23;20077;-94
2021/11/25 17:35:11;;;;;;;8.15;1.65;;;3.90;97.50;;;;;;4946962;29;20031;-94
2021/11/25 17:37:38;;;;;;;6.78;1.70;;;3.90;97.60;;;;;;4947998;29;20423;-94
2021/11/25 17:40:06;;;;;;;8.05;2.08;;;3.90;97.70;;;;;;4948550;29;20195;-94
2021/11/25 17:42:34;;;;;;;5.45;1.80;;;3.90;98.00;;;;;;4944958;29;20515;-94
2021/11/25 17:45:04;;;;;;;16.52;2.13;;;3.90;97.80;;;;;;4943379;29;20493;-94
2021/11/25 17:47:32;;;;;;;13.48;2.90;;;3.90;97.90;;;;;;4949458;29;20073;-94
2021/11/25 17:50:31;;;;;;;9.93;1.95;;;3.80;97.90;;;;;;4952875;29;20063;-95
2021/11/25 17:52:57;;;;;;;13.45;4.13;;;3.80;98.00;;;;;;4967481;28;20023;-95
2021/11/25 17:55:24;;;;;;;6.00;2.03;;;3.80;98.10;;;;;;4948330;29;20042;-95
2021/11/25 17:57:53;;;;;;;9.02;1.73;;;3.80;98.10;;;;;;4947179;29;20028;-95
2021/11/25 18:00:25;;;;;;;7.60;1.73;;;3.80;98.20;;;;;;4950232;29;20058;-95
2021/11/25 18:02:54;;;;;;;9.57;1.85;;;3.80;98.20;;;;;;4944481;29;20027;-95
2021/11/25 18:05:37;;;;;;;5.95;1.52;;;3.80;98.20;;;;;;4948131;29;20031;-94
2021/11/25 18:08:10;;;;;;;6.20;1.70;;;3.70;98.10;;;;;;4954973;29;20022;-95
2021/11/25 18:10:47;;;;;;;9.05;1.88;;;3.70;98.20;;;;;;4942104;29;20115;-95
2021/11/25 18:13:18;;;;;;;11.13;2.40;;;3.70;98.30;;;;;;4945895;29;20031;-96
2021/11/25 18:16:08;;;;;;;14.15;2.42;;;3.70;98.50;;;;;;4966120;29;20099;-95
2021/11/25 18:18:46;;;;;;;10.95;2.38;;;3.60;98.60;;;;;;4922941;29;20114;-95
2021/11/25 18:21:15;;;;;;;9.75;1.77;;;3.60;98.60;;;;;;4951345;28;20020;-94
2021/11/25 18:23:53;;;;;;;13.32;1.95;;;3.50;98.60;;;;;;4951770;29;20023;-96
2021/11/25 18:26:24;;;;;;;7.75;2.40;;;3.50;98.70;;;;;;4974282;28;20019;-95
2021/11/25 18:28:52;;;;;;;14.23;4.03;;;3.40;98.80;;;;;;4957921;29;20027;-94
2021/11/25 18:31:25;;;;;;;10.73;2.05;;;3.40;99.00;;;;;;4955715;29;20032;-95
2021/11/25 18:33:53;;;;;;;13.23;4.00;;;3.40;99.00;;;;;;4897634;29;20044;-96
2021/11/25 18:36:25;;;;;;;26.83;4.63;;;3.40;99.20;;;;;;4933043;29;20027;-94
2021/11/25 18:38:56;;;;;;;11.80;2.70;;;3.40;99.30;;;;;;4923882;29;20024;-95
2021/11/25 18:44:57;;;;;;;13.95;2.92;;;3.40;99.70;;;;;;4938915;29;20043;-95
2021/11/25 18:47:29;;;;;;;14.98;3.47;;;3.40;99.80;;;;;;4885472;29;20053;-95
2021/11/25 18:49:57;;;;;;;10.13;2.53;;;3.50;99.90;;;;;;4868218;29;20104;-95
2021/11/25 18:52:24;;;;;;;9.77;3.00;;;3.50;99.90;;;;;;4869550;29;20105;-95
2021/11/25 18:54:51;;;;;;;11.55;3.15;;;3.70;99.90;;;;;;4870996;29;20487;-94
2021/11/25 18:57:16;;;;;;;13.63;3.00;;;3.80;99.90;;;;;;4871097;29;20041;-94
2021/11/25 18:59:42;;;;;;;12.15;2.17;;;4.00;99.90;;;;;;4872868;29;20040;-95
2021/11/25 19:02:10;;;;;;;7.75;1.77;;;4.20;99.90;;;;;;4871572;29;20033;-94
2021/11/25 19:04:41;;;;;;;5.60;1.70;;;4.30;99.90;;;;;;4871891;29;20041;-96
2021/11/25 19:07:10;;;;;;;4.78;1.70;;;4.50;99.90;;;;;;4875183;29;20036;-95
2021/11/25 19:09:45;;;;;;;9.30;1.73;;;4.60;99.90;;;;;;4874431;29;20029;-96
2021/11/25 19:12:14;;;;;;;9.18;1.80;;;4.70;99.90;;;;;;4874336;29;20041;-95
2021/11/25 19:14:40;;;;;;;8.15;1.55;;;4.80;99.90;;;;;;4871896;29;20033;-94
2021/11/25 19:17:06;;;;;;;4.22;1.30;;;4.80;99.90;;;;;;4872582;29;20029;-95